Time;durP1;ratioP1;P1;durP2;ratioP2;P2;SDS_P1;SDS_P2;PMS_P1;PMS_P2;Temp;Humidity;BMP_temperature;BMP_pressure;BME280_temperature;BME280_humidity;BME280_pressure;Samples;Min_cycle;Max_cycle;Signal;HPM_P1;HPM_P2
2022/03/25 00:01:37;;;;;;;15.13;13.73;;;;;;;10.30;28.95;93136.34;5050859;28;20200;-76
2022/03/25 00:04:03;;;;;;;14.70;13.30;;;;;;;10.55;28.50;93144.09;5049522;28;20225;-76
2022/03/25 00:06:28;;;;;;;15.13;13.73;;;;;;;10.52;28.48;93136.03;5047463;28;20228;-76
2022/03/25 00:08:54;;;;;;;15.73;14.23;;;;;;;10.67;27.80;93138.59;5049231;28;20225;-76
2022/03/25 00:11:19;;;;;;;14.40;12.90;;;;;;;10.65;28.98;93138.88;5048724;28;20254;-76
2022/03/25 00:13:44;;;;;;;18.07;14.10;;;;;;;10.60;27.84;93128.44;5049165;28;20229;-76
2022/03/25 00:16:10;;;;;;;14.77;13.27;;;;;;;10.47;28.96;93129.00;5049114;28;20224;-75
2022/03/25 00:18:36;;;;;;;15.40;13.83;;;;;;;10.46;28.73;93105.78;5048098;28;20267;-74
2022/03/25 00:21:01;;;;;;;17.07;13.00;;;;;;;10.58;28.30;93107.03;5047341;28;20192;-76
2022/03/25 00:23:27;;;;;;;14.97;13.63;;;;;;;10.70;28.08;93120.56;5046691;28;20229;-76
2022/03/25 00:25:53;;;;;;;14.77;13.27;;;;;;;10.71;28.01;93106.47;5049033;28;20252;-76
2022/03/25 00:28:20;;;;;;;15.47;14.03;;;;;;;10.75;27.83;93111.94;5048916;28;20189;-75
2022/03/25 00:30:46;;;;;;;15.00;13.50;;;;;;;10.58;28.37;93104.44;5047997;28;20181;-76
2022/03/25 00:33:12;;;;;;;15.17;13.27;;;;;;;10.76;27.72;93111.66;5048378;28;20192;-76
2022/03/25 00:35:38;;;;;;;17.03;13.97;;;;;;;10.55;27.82;93091.88;5047865;28;20214;-75
2022/03/25 00:38:03;;;;;;;14.77;13.57;;;;;;;10.54;28.09;93111.22;5049293;28;20213;-75
2022/03/25 00:40:29;;;;;;;16.67;13.17;;;;;;;10.66;27.91;93105.72;5047632;28;20233;-76
2022/03/25 00:42:54;;;;;;;15.37;13.87;;;;;;;10.62;28.35;93104.66;5049074;28;20241;-75
2022/03/25 00:45:21;;;;;;;15.87;14.23;;;;;;;10.68;27.82;93091.31;5039483;28;20229;-76
2022/03/25 00:47:46;;;;;;;14.77;12.93;;;;;;;10.74;27.51;93099.94;5048276;28;20194;-77
2022/03/25 00:50:12;;;;;;;14.67;13.20;;;;;;;10.74;27.57;93094.72;5047660;28;20253;-76
2022/03/25 00:52:37;;;;;;;14.60;13.07;;;;;;;10.78;27.55;93093.13;5047972;28;20190;-76
2022/03/25 00:55:05;;;;;;;16.77;14.00;;;;;;;10.65;27.77;93073.59;5048684;28;20229;-76
2022/03/25 00:57:30;;;;;;;15.27;13.70;;;;;;;10.55;27.42;93076.22;5040953;28;20240;-76
2022/03/25 00:59:56;;;;;;;15.37;13.80;;;;;;;10.58;28.17;93080.94;5048617;28;20234;-76
2022/03/25 01:02:22;;;;;;;15.47;13.50;;;;;;;10.53;27.88;93086.16;5047274;28;20212;-76
2022/03/25 01:04:48;;;;;;;14.80;13.50;;;;;;;10.48;27.85;93070.50;5046477;28;20226;-76
2022/03/25 01:07:14;;;;;;;17.57;14.57;;;;;;;10.43;27.89;93083.56;5049272;28;20233;-76
2022/03/25 01:09:40;;;;;;;16.17;14.73;;;;;;;10.57;27.38;93070.72;5048132;28;20223;-77
2022/03/25 01:12:06;;;;;;;15.97;14.50;;;;;;;10.65;27.44;93076.19;5048170;28;20260;-77
2022/03/25 01:14:32;;;;;;;14.43;12.93;;;;;;;10.38;28.08;93065.31;5047453;28;20246;-76
2022/03/25 01:16:58;;;;;;;17.13;13.50;;;;;;;10.41;28.29;93084.91;5048054;28;20218;-77
2022/03/25 01:19:27;;;;;;;15.00;13.60;;;;;;;10.41;28.08;93088.25;5047018;28;21878;-76
2022/03/25 01:21:54;;;;;;;14.63;13.20;;;;;;;10.43;28.15;93080.97;5048451;28;20235;-76
2022/03/25 01:24:20;;;;;;;15.60;14.03;;;;;;;10.38;28.14;93075.75;5047990;28;20222;-77
2022/03/25 01:26:46;;;;;;;15.33;14.13;;;;;;;10.35;27.79;93071.06;5047886;28;20198;-76
2022/03/25 01:29:12;;;;;;;15.03;13.67;;;;;;;10.49;28.02;93071.31;5050911;28;20238;-76
2022/03/25 01:31:38;;;;;;;16.10;13.80;;;;;;;10.38;28.25;93075.00;5048928;28;20194;-76
2022/03/25 01:34:04;;;;;;;17.90;14.50;;;;;;;10.27;28.06;93076.06;5049645;28;20265;-76
2022/03/25 01:36:30;;;;;;;15.43;13.80;;;;;;;10.11;27.93;93027.56;5050204;28;20227;-77
2022/03/25 01:38:56;;;;;;;14.93;13.50;;;;;;;10.36;28.01;93050.97;5050775;28;20229;-76
2022/03/25 01:41:21;;;;;;;15.80;14.27;;;;;;;10.54;29.10;93069.44;5051978;28;20205;-76
2022/03/25 01:43:55;;;;;;;15.70;14.23;;;;;;;10.46;28.68;93056.94;5051224;28;20210;-76
2022/03/25 01:46:21;;;;;;;15.27;13.97;;;;;;;10.45;27.74;93060.59;5051075;28;20198;-76
2022/03/25 01:48:48;;;;;;;15.10;13.80;;;;;;;10.41;28.23;93077.81;5051717;28;20225;-76
2022/03/25 01:51:27;;;;;;;15.87;14.10;;;;;;;10.38;28.48;93080.22;5049020;28;20201;-77
2022/03/25 01:53:52;;;;;;;16.07;14.20;;;;;;;10.20;28.26;93083.38;5051228;28;20954;-76
2022/03/25 01:56:22;;;;;;;17.17;14.87;;;;;;;10.21;27.88;93077.88;5051661;28;21665;-76
2022/03/25 01:58:48;;;;;;;17.23;14.73;;;;;;;10.36;27.89;93087.50;5050309;28;20233;-77
2022/03/25 02:01:14;;;;;;;15.03;13.73;;;;;;;10.38;27.78;93080.97;5051132;28;20189;-77
2022/03/25 02:03:40;;;;;;;19.30;13.83;;;;;;;10.24;28.03;93079.97;5051552;28;20214;-77
2022/03/25 02:06:06;;;;;;;16.87;13.93;;;;;;;10.03;28.91;93072.41;5041151;28;20205;-76
2022/03/25 02:08:32;;;;;;;16.30;14.60;;;;;;;10.13;27.86;93086.28;5051135;28;20229;-76
2022/03/25 02:10:58;;;;;;;15.93;14.40;;;;;;;10.24;27.81;93079.97;5050773;28;20209;-75
2022/03/25 02:13:24;;;;;;;16.60;13.73;;;;;;;10.35;27.53;93085.97;5050534;28;20187;-77
2022/03/25 02:15:50;;;;;;;15.20;13.63;;;;;;;10.15;27.79;93070.34;5044752;28;20221;-77
2022/03/25 02:18:20;;;;;;;17.83;14.70;;;;;;;10.13;28.30;93075.84;5044536;28;20234;-77
2022/03/25 02:20:48;;;;;;;16.13;14.43;;;;;;;10.34;27.40;93079.94;5050200;28;20197;-77
2022/03/25 02:23:14;;;;;;;16.53;14.43;;;;;;;10.29;27.73;93081.81;5050339;28;20194;-76
2022/03/25 02:25:41;;;;;;;15.67;14.07;;;;;;;10.00;28.76;93070.31;5051094;28;20225;-76
2022/03/25 02:28:08;;;;;;;19.17;14.37;;;;;;;10.29;27.41;93071.38;5050351;28;20198;-77
2022/03/25 02:30:36;;;;;;;16.30;14.80;;;;;;;10.27;27.88;93068.22;5050840;28;20193;-76
2022/03/25 02:33:04;;;;;;;15.20;13.90;;;;;;;10.31;27.58;93066.63;5050068;28;20197;-77
2022/03/25 02:35:50;;;;;;;16.23;14.67;;;;;;;10.27;27.50;93069.03;5050380;28;20807;-76
2022/03/25 02:38:24;;;;;;;16.23;14.50;;;;;;;10.12;27.85;93066.44;5049740;28;20189;-78
2022/03/25 02:40:50;;;;;;;20.40;14.53;;;;;;;10.20;27.35;93049.44;5050222;28;20186;-77
2022/03/25 02:43:17;;;;;;;16.87;15.07;;;;;;;10.25;27.54;93062.50;5050002;28;20555;-77
2022/03/25 02:45:42;;;;;;;15.70;14.00;;;;;;;10.20;27.17;93049.44;5050863;28;20182;-77
2022/03/25 02:48:09;;;;;;;14.97;13.50;;;;;;;10.28;27.40;93069.78;5050104;28;20190;-77
2022/03/25 02:50:36;;;;;;;17.93;14.50;;;;;;;10.16;27.72;93051.81;5049246;28;20278;-77
2022/03/25 02:53:02;;;;;;;22.20;14.50;;;;;;;10.05;27.83;93052.06;5050245;28;20210;-75
2022/03/25 02:55:28;;;;;;;15.03;13.43;;;;;;;10.33;27.70;93057.53;5049237;28;20226;-77
2022/03/25 02:57:54;;;;;;;15.97;13.43;;;;;;;9.98;27.78;92997.56;5050335;28;20210;-76
2022/03/25 03:00:21;;;;;;;16.20;14.80;;;;;;;10.29;27.88;93061.69;5049252;28;20222;-77
2022/03/25 03:02:48;;;;;;;15.77;14.03;;;;;;;10.30;27.56;93058.06;5050585;28;20186;-77
2022/03/25 03:05:14;;;;;;;17.17;14.53;;;;;;;10.27;27.61;93058.59;5049999;28;20280;-75
2022/03/25 03:07:40;;;;;;;16.57;14.83;;;;;;;10.14;27.73;93042.69;5048852;28;20182;-76
2022/03/25 03:10:08;;;;;;;16.10;14.50;;;;;;;10.26;27.85;93059.63;5049475;28;20316;-76
2022/03/25 03:12:35;;;;;;;16.53;14.77;;;;;;;10.10;27.74;93055.47;5049159;28;20265;-76
2022/03/25 03:15:02;;;;;;;15.17;13.77;;;;;;;10.14;27.94;93064.34;5049381;28;20260;-76
2022/03/25 03:17:27;;;;;;;16.40;14.63;;;;;;;10.10;27.62;93050.25;5047523;28;20231;-75
2022/03/25 03:19:54;;;;;;;15.83;14.57;;;;;;;10.30;27.36;93058.06;5050197;28;20234;-76
2022/03/25 03:22:19;;;;;;;17.13;15.17;;;;;;;10.16;27.34;93033.56;5050136;28;20202;-76
2022/03/25 03:24:45;;;;;;;14.97;13.53;;;;;;;9.99;28.64;93040.88;5046199;28;20213;-76
2022/03/25 03:27:11;;;;;;;15.33;14.03;;;;;;;9.98;27.97;93052.34;5041331;28;20210;-76
2022/03/25 03:29:37;;;;;;;17.33;15.83;;;;;;;10.01;28.02;93058.88;5049579;28;20234;-76
2022/03/25 03:32:04;;;;;;;18.37;16.13;;;;;;;10.20;27.62;93072.94;5043045;28;20194;-76
2022/03/25 03:34:30;;;;;;;17.20;15.63;;;;;;;10.22;27.37;93076.84;5049045;28;20226;-76
2022/03/25 03:36:55;;;;;;;18.93;14.83;;;;;;;9.90;27.72;93016.34;5049618;28;20229;-76
2022/03/25 03:39:21;;;;;;;21.50;14.37;;;;;;;10.20;27.17;93060.69;5049497;28;21100;-76
2022/03/25 03:41:47;;;;;;;17.67;15.87;;;;;;;10.05;27.59;93057.28;5049967;28;20190;-76
2022/03/25 03:44:13;;;;;;;16.57;13.80;;;;;;;9.95;28.49;93068.50;5049097;28;20230;-76
2022/03/25 03:46:38;;;;;;;17.40;15.63;;;;;;;10.25;27.69;93065.88;5048427;28;20197;-76
2022/03/25 03:49:04;;;;;;;16.63;15.03;;;;;;;10.31;27.56;93069.25;5047254;28;20221;-76
2022/03/25 03:51:30;;;;;;;17.47;15.70;;;;;;;10.32;27.04;93069.00;5048721;28;20190;-76
2022/03/25 03:53:55;;;;;;;16.63;15.07;;;;;;;10.13;27.81;93077.66;5049076;28;20225;-76
2022/03/25 03:56:22;;;;;;;16.73;15.23;;;;;;;10.01;27.67;93051.81;5048699;28;20202;-75
2022/03/25 03:58:47;;;;;;;17.53;15.83;;;;;;;9.94;27.70;93037.47;5047792;28;20264;-76
2022/03/25 04:01:13;;;;;;;17.20;15.67;;;;;;;9.94;28.30;93066.97;5049032;28;20178;-76
2022/03/25 04:03:39;;;;;;;17.03;15.27;;;;;;;9.98;28.32;93069.84;5040920;28;20237;-76
2022/03/25 04:06:05;;;;;;;17.97;15.07;;;;;;;9.77;28.77;93069.81;5049983;28;20193;-75
2022/03/25 04:08:31;;;;;;;16.03;14.70;;;;;;;9.39;28.80;93028.66;5049052;28;20706;-76
2022/03/25 04:10:56;;;;;;;16.27;14.57;;;;;;;9.57;28.83;93063.84;5048878;28;20273;-76
2022/03/25 04:13:22;;;;;;;17.43;15.57;;;;;;;9.72;28.91;93071.66;5047678;28;20220;-75
2022/03/25 04:15:47;;;;;;;17.67;15.97;;;;;;;9.71;29.01;93064.91;5048931;28;20970;-76
2022/03/25 04:18:13;;;;;;;16.50;14.87;;;;;;;9.85;28.52;93076.38;5048869;28;20217;-76
2022/03/25 04:20:38;;;;;;;18.03;16.20;;;;;;;9.66;28.68;93070.88;5049095;28;20198;-76
2022/03/25 04:23:04;;;;;;;19.97;15.43;;;;;;;9.50;28.95;93047.69;5047075;28;20182;-75
2022/03/25 04:25:29;;;;;;;17.83;15.17;;;;;;;9.44;29.47;93070.38;5048354;28;20240;-77
2022/03/25 04:27:57;;;;;;;16.23;14.73;;;;;;;9.54;28.91;93053.94;5048866;28;20194;-76
2022/03/25 04:30:26;;;;;;;17.43;15.53;;;;;;;9.40;29.40;93061.47;5048419;28;20290;-76
2022/03/25 04:32:52;;;;;;;18.00;15.57;;;;;;;9.39;29.55;93074.78;5049211;28;20197;-75
2022/03/25 04:35:19;;;;;;;21.27;17.60;;;;;;;9.17;29.52;93058.59;5047744;28;20233;-75
2022/03/25 04:37:46;;;;;;;22.23;17.13;;;;;;;9.34;29.35;93066.94;5047796;28;20206;-76
2022/03/25 04:40:12;;;;;;;19.03;17.10;;;;;;;9.45;29.42;93084.16;5047856;28;20238;-76
2022/03/25 04:42:38;;;;;;;17.97;15.73;;;;;;;9.49;29.58;93062.53;5048977;28;20214;-83
2022/03/25 04:45:04;;;;;;;17.63;15.90;;;;;;;10.01;29.47;93080.50;5047681;28;20640;-76
2022/03/25 04:47:30;;;;;;;18.53;16.67;;;;;;;9.79;28.81;93072.97;5045145;28;20189;-75
2022/03/25 04:49:56;;;;;;;17.80;15.70;;;;;;;9.95;28.71;93085.97;5046596;28;20225;-74
2022/03/25 04:52:21;;;;;;;17.70;16.10;;;;;;;10.14;28.32;93081.81;5047306;28;20193;-75
2022/03/25 04:54:47;;;;;;;17.63;15.83;;;;;;;10.26;28.11;93088.31;5046632;28;20221;-76
2022/03/25 04:57:12;;;;;;;18.73;15.23;;;;;;;10.33;28.45;93077.59;5047877;28;20221;-75
2022/03/25 04:59:38;;;;;;;18.53;16.73;;;;;;;10.26;27.66;93088.31;5047279;28;20217;-77
2022/03/25 05:02:03;;;;;;;17.60;15.90;;;;;;;10.28;27.84;93081.00;5049305;28;20210;-76
2022/03/25 05:04:29;;;;;;;17.80;16.07;;;;;;;10.20;27.86;93073.72;5051777;28;20238;-81
2022/03/25 05:06:54;;;;;;;17.80;15.90;;;;;;;10.33;28.11;93088.03;5052757;28;20218;-85
2022/03/25 05:09:20;;;;;;;19.57;17.40;;;;;;;10.32;28.21;93074.19;5047096;28;20226;-80
2022/03/25 05:11:45;;;;;;;17.00;15.47;;;;;;;10.48;28.21;93080.97;5047487;28;20213;-86
2022/03/25 05:14:11;;;;;;;27.53;16.03;;;;;;;10.22;27.62;93069.03;5047930;28;20261;-80
2022/03/25 05:16:36;;;;;;;22.10;15.97;;;;;;;10.51;27.52;93085.66;5050059;28;20236;-75
2022/03/25 05:19:02;;;;;;;24.67;15.60;;;;;;;10.48;28.07;93096.63;5046447;28;20228;-75
2022/03/25 05:21:28;;;;;;;18.53;16.77;;;;;;;10.48;27.57;93077.56;5050533;28;20178;-80
2022/03/25 05:23:53;;;;;;;19.97;16.80;;;;;;;10.51;26.97;93077.81;5050340;28;20337;-74
2022/03/25 05:26:20;;;;;;;19.77;15.57;;;;;;;10.44;28.25;93073.94;5049530;28;20186;-76
2022/03/25 05:28:45;;;;;;;17.97;15.20;;;;;;;10.51;27.20;93074.41;5050400;28;20226;-76
2022/03/25 05:31:11;;;;;;;17.00;15.43;;;;;;;10.61;27.78;93088.22;5050091;28;20198;-75
2022/03/25 05:33:37;;;;;;;19.43;17.43;;;;;;;10.74;27.40;93095.47;5047829;28;20225;-77
2022/03/25 05:36:03;;;;;;;25.20;15.93;;;;;;;10.89;27.84;93094.66;5049993;28;20756;-76
2022/03/25 05:38:30;;;;;;;18.20;16.07;;;;;;;10.81;26.78;93095.19;5047954;28;20284;-76
2022/03/25 05:40:55;;;;;;;22.50;16.13;;;;;;;10.81;27.50;93080.31;5051008;28;20179;-75
2022/03/25 05:43:21;;;;;;;20.13;16.67;;;;;;;10.71;27.27;93066.50;5049439;28;20198;-76
2022/03/25 05:45:46;;;;;;;16.87;15.10;;;;;;;10.90;26.19;93083.13;5048247;28;20197;-76
2022/03/25 05:48:12;;;;;;;20.83;16.43;;;;;;;11.00;26.22;93088.31;5044828;28;20190;-74
2022/03/25 05:50:37;;;;;;;17.23;15.43;;;;;;;11.02;26.67;93092.22;5049099;28;20189;-76
2022/03/25 05:53:03;;;;;;;20.23;16.90;;;;;;;10.98;26.19;93083.38;5048330;28;20183;-75
2022/03/25 05:55:29;;;;;;;25.83;18.53;;;;;;;11.22;26.00;93086.13;5044613;28;20222;-75
2022/03/25 05:57:54;;;;;;;18.67;16.77;;;;;;;11.21;27.27;93098.41;5043548;28;20199;-75
2022/03/25 06:00:20;;;;;;;22.03;16.20;;;;;;;11.23;25.69;93104.16;5045774;28;20345;-74
2022/03/25 06:02:45;;;;;;;22.80;17.53;;;;;;;11.18;25.72;93098.16;5049047;28;20204;-80
2022/03/25 06:05:11;;;;;;;19.53;17.43;;;;;;;11.23;25.84;93106.75;5044801;28;20287;-76
2022/03/25 06:07:44;;;;;;;19.87;17.80;;;;;;;11.24;25.99;93094.47;5047823;28;20391;-76
2022/03/25 06:10:11;;;;;;;19.23;16.73;;;;;;;11.28;25.85;93100.72;5045700;28;20279;-75
2022/03/25 06:12:39;;;;;;;19.73;17.60;;;;;;;11.24;25.72;93105.69;5044392;28;20301;-76
2022/03/25 06:15:06;;;;;;;20.27;16.97;;;;;;;11.28;26.12;93111.94;5048987;28;20237;-76
2022/03/25 06:17:31;;;;;;;22.97;17.07;;;;;;;11.30;26.12;93109.06;5047205;28;20718;-76
2022/03/25 06:19:57;;;;;;;24.30;17.40;;;;;;;11.26;25.57;93081.91;5043335;28;20225;-75
2022/03/25 06:22:27;;;;;;;20.73;17.23;;;;;;;11.59;25.66;93111.75;5050352;28;20198;-76
2022/03/25 06:24:53;;;;;;;26.90;20.33;;;;;;;11.39;25.11;93086.53;5047908;28;20222;-76
2022/03/25 06:27:19;;;;;;;22.43;19.23;;;;;;;11.65;25.62;93111.50;5048060;28;20218;-77
2022/03/25 06:29:44;;;;;;;22.27;19.80;;;;;;;11.74;25.95;93111.69;5050039;28;20214;-77
2022/03/25 06:32:10;;;;;;;25.93;20.07;;;;;;;11.75;25.71;93121.09;5049793;28;20272;-76
2022/03/25 06:34:35;;;;;;;26.20;21.03;;;;;;;11.82;25.96;93121.56;5046092;28;20693;-78
2022/03/25 06:37:02;;;;;;;26.87;20.33;;;;;;;11.73;25.98;93123.22;5041931;28;20206;-77
2022/03/25 06:39:29;;;;;;;24.13;19.27;;;;;;;11.75;25.60;93134.19;5047652;28;20234;-76
2022/03/25 06:41:55;;;;;;;25.93;20.10;;;;;;;11.77;26.04;93113.75;5048478;28;20202;-78
2022/03/25 06:44:20;;;;;;;25.77;19.70;;;;;;;11.85;26.00;93121.81;5050089;28;20227;-79
2022/03/25 06:46:46;;;;;;;28.97;21.30;;;;;;;11.95;26.06;93131.41;5047705;28;20201;-78
2022/03/25 06:49:12;;;;;;;25.73;21.40;;;;;;;11.87;25.93;93134.63;5045295;28;20229;-81
2022/03/25 06:51:37;;;;;;;30.93;21.40;;;;;;;11.96;26.14;93143.44;5048902;28;20198;-79
2022/03/25 06:54:03;;;;;;;26.97;21.37;;;;;;;11.81;26.48;93122.63;5045706;28;20219;-81
2022/03/25 06:56:32;;;;;;;29.50;22.77;;;;;;;11.85;26.43;93132.28;5049342;28;20301;-81
2022/03/25 06:58:58;;;;;;;26.40;20.67;;;;;;;11.69;26.11;93083.72;5047355;28;20233;-79
2022/03/25 07:01:25;;;;;;;23.67;20.77;;;;;;;12.00;26.98;93115.69;5046840;28;20260;-79
2022/03/25 07:03:50;;;;;;;34.33;21.57;;;;;;;12.23;27.25;93114.97;5047693;28;20261;-79
2022/03/25 07:06:22;;;;;;;29.13;20.83;;;;;;;12.30;26.46;93136.34;5048764;28;20752;-77
2022/03/25 07:08:49;;;;;;;21.93;19.60;;;;;;;12.27;27.26;93114.13;5056437;28;20223;-78
2022/03/25 07:11:15;;;;;;;23.67;21.07;;;;;;;12.30;26.61;93131.13;5047103;28;20197;-78
2022/03/25 07:13:41;;;;;;;28.63;20.27;;;;;;;12.40;26.35;93131.03;5042834;28;20315;-78
2022/03/25 07:16:07;;;;;;;28.67;19.40;;;;;;;12.22;26.25;93126.47;5049787;28;20218;-77
2022/03/25 07:18:32;;;;;;;28.63;18.63;;;;;;;12.32;26.58;93132.41;5048834;28;20255;-78
2022/03/25 07:21:00;;;;;;;22.17;19.07;;;;;;;12.28;27.35;93125.38;5050074;28;20195;-77
2022/03/25 07:23:25;;;;;;;25.40;19.27;;;;;;;12.37;27.75;93134.19;5049235;28;20244;-77
2022/03/25 07:25:51;;;;;;;24.30;18.73;;;;;;;12.54;26.44;93145.84;5048205;28;20221;-77
2022/03/25 07:28:16;;;;;;;22.30;19.67;;;;;;;12.66;26.60;93142.81;5048321;28;20194;-77
2022/03/25 07:30:42;;;;;;;24.53;19.23;;;;;;;12.42;26.21;93139.41;5049284;28;20189;-78
2022/03/25 07:33:07;;;;;;;25.93;18.93;;;;;;;12.40;26.32;93138.88;5048583;28;20241;-77
2022/03/25 07:35:33;;;;;;;24.70;20.23;;;;;;;12.63;26.69;93138.13;5050285;28;20186;-77
2022/03/25 07:37:58;;;;;;;23.53;19.00;;;;;;;12.53;26.92;93128.53;5049814;28;20205;-77
2022/03/25 07:40:24;;;;;;;21.67;19.23;;;;;;;12.57;27.27;93142.66;5047313;28;20238;-77
2022/03/25 07:42:49;;;;;;;27.20;19.03;;;;;;;12.62;26.34;93142.59;5047335;28;20223;-77
2022/03/25 07:45:15;;;;;;;24.33;19.17;;;;;;;12.70;26.29;93139.34;5047283;28;20239;-77
2022/03/25 07:47:46;;;;;;;22.13;19.87;;;;;;;12.80;26.73;93143.72;5048876;28;20190;-77
2022/03/25 07:50:13;;;;;;;24.90;18.93;;;;;;;12.78;26.78;93140.59;5048608;28;20252;-77
2022/03/25 07:52:40;;;;;;;22.87;18.80;;;;;;;12.67;26.33;93150.41;5048662;28;20189;-77
2022/03/25 07:55:06;;;;;;;21.97;19.07;;;;;;;12.77;26.79;93136.41;5048732;28;20219;-77
2022/03/25 07:57:34;;;;;;;27.63;19.33;;;;;;;12.76;26.27;93159.22;5047903;28;20217;-77
2022/03/25 08:00:00;;;;;;;21.30;16.30;;;;;;;12.52;26.20;93155.00;5045089;28;20222;-78
2022/03/25 08:02:25;;;;;;;21.70;18.40;;;;;;;12.60;26.61;93147.34;5048616;28;20175;-77
2022/03/25 08:04:51;;;;;;;22.87;19.37;;;;;;;12.80;26.43;93144.50;5049204;28;20217;-78
2022/03/25 08:07:16;;;;;;;31.63;17.47;;;;;;;12.68;26.76;93149.31;5049674;28;20204;-76
2022/03/25 08:09:42;;;;;;;21.50;19.20;;;;;;;12.81;26.45;93125.09;5047640;28;20226;-78
2022/03/25 08:12:08;;;;;;;26.67;18.10;;;;;;;12.84;26.22;93136.88;5046325;28;20194;-78
2022/03/25 08:14:34;;;;;;;24.80;18.23;;;;;;;12.92;26.09;93149.34;5040853;28;20256;-79
2022/03/25 08:17:00;;;;;;;23.53;18.80;;;;;;;12.98;26.79;93137.75;5048865;28;20263;-78
2022/03/25 08:19:26;;;;;;;24.67;18.57;;;;;;;12.98;27.51;93150.09;5048659;28;20232;-78
2022/03/25 08:21:51;;;;;;;20.77;17.67;;;;;;;13.01;26.73;93139.06;5049117;28;20213;-77
2022/03/25 08:29:46;;;;;;;24.97;17.33;;;;;;;12.58;26.01;93106.75;5047740;28;20268;-79
2022/03/25 08:32:11;;;;;;;29.30;18.40;;;;;;;12.79;26.38;93158.66;5049285;28;20190;-77
2022/03/25 08:34:37;;;;;;;22.87;17.57;;;;;;;12.96;27.09;93150.38;5047071;28;20245;-78
2022/03/25 08:37:02;;;;;;;26.97;18.57;;;;;;;13.11;26.33;93139.72;5051412;28;20236;-78
2022/03/25 08:39:28;;;;;;;26.80;18.13;;;;;;;13.33;26.60;93147.84;5052655;28;20229;-78
2022/03/25 08:41:53;;;;;;;23.43;18.67;;;;;;;13.39;26.35;93136.22;5052101;28;20190;-79
2022/03/25 08:44:19;;;;;;;28.73;18.83;;;;;;;13.48;25.74;93149.50;5052892;28;20238;-79
2022/03/25 08:46:45;;;;;;;24.97;17.47;;;;;;;13.41;26.30;93155.09;5053150;28;20197;-78
2022/03/25 08:49:10;;;;;;;22.83;18.57;;;;;;;13.44;26.47;93154.53;5052735;28;20225;-77
2022/03/25 08:51:36;;;;;;;24.33;18.43;;;;;;;13.40;26.66;93148.25;5052948;28;20184;-78
2022/03/25 08:54:02;;;;;;;26.53;17.83;;;;;;;12.92;25.97;93116.06;5051620;28;20218;-78
2022/03/25 08:56:28;;;;;;;30.20;17.97;;;;;;;13.03;26.10;93158.69;5052892;28;20224;-78
2022/03/25 08:58:58;;;;;;;20.13;16.63;;;;;;;13.26;25.81;93152.63;5050310;28;20221;-77
2022/03/25 09:01:24;;;;;;;22.13;16.87;;;;;;;13.18;26.14;93123.66;5052730;28;20181;-78
2022/03/25 09:03:49;;;;;;;19.80;16.43;;;;;;;13.32;25.98;93151.53;5051261;28;20230;-78
2022/03/25 09:06:15;;;;;;;25.17;16.57;;;;;;;13.23;26.12;93124.34;5052039;28;20177;-78
2022/03/25 09:08:40;;;;;;;22.73;17.43;;;;;;;13.44;26.32;93144.03;5050321;28;20221;-77
2022/03/25 09:11:06;;;;;;;20.30;17.13;;;;;;;13.58;25.42;93146.72;5052678;28;20262;-77
2022/03/25 09:13:31;;;;;;;18.90;16.60;;;;;;;13.36;25.64;93121.06;5051950;28;20260;-78
2022/03/25 09:15:57;;;;;;;21.40;16.97;;;;;;;13.39;25.75;93133.59;5050906;28;20209;-79
2022/03/25 09:18:22;;;;;;;22.17;17.50;;;;;;;13.50;25.75;93127.16;5051940;28;20257;-79
2022/03/25 09:20:48;;;;;;;20.83;16.70;;;;;;;13.64;25.99;93142.97;5051171;28;20190;-78
2022/03/25 09:23:14;;;;;;;19.53;16.60;;;;;;;13.63;25.15;93136.16;5051689;28;20661;-78
2022/03/25 09:25:40;;;;;;;20.87;18.07;;;;;;;13.52;25.64;93145.25;5051507;28;20284;-79
2022/03/25 09:28:05;;;;;;;20.63;16.97;;;;;;;13.46;24.87;93128.81;5051552;28;20273;-78
2022/03/25 09:30:31;;;;;;;19.37;17.20;;;;;;;13.43;24.81;93120.72;5051552;28;20202;-77
2022/03/25 09:32:57;;;;;;;17.50;15.80;;;;;;;13.74;25.73;93140.97;5052685;28;20180;-77
2022/03/25 09:35:23;;;;;;;22.97;17.20;;;;;;;13.69;25.29;93143.69;5050532;28;20298;-79
2022/03/25 09:37:50;;;;;;;17.33;15.60;;;;;;;13.91;25.19;93136.03;5049259;28;20232;-77
2022/03/25 09:40:25;;;;;;;16.97;15.37;;;;;;;14.03;25.13;93120.59;5051143;28;20625;-78
2022/03/25 09:42:55;;;;;;;17.27;15.57;;;;;;;13.97;25.44;93121.75;5049939;28;20178;-77
2022/03/25 09:45:22;;;;;;;18.27;15.23;;;;;;;13.83;24.38;93120.94;5049624;28;20245;-78
2022/03/25 09:47:49;;;;;;;20.47;16.67;;;;;;;13.76;24.00;93109.22;5051380;28;20249;-78
2022/03/25 09:50:17;;;;;;;17.93;16.13;;;;;;;13.82;24.04;93135.09;5050957;28;20234;-76
2022/03/25 09:52:44;;;;;;;18.40;14.77;;;;;;;13.87;23.65;93128.97;5050903;28;20178;-75
2022/03/25 09:55:11;;;;;;;18.60;15.70;;;;;;;14.06;23.63;93140.25;5048569;28;20214;-78
2022/03/25 09:57:36;;;;;;;19.10;15.80;;;;;;;14.02;23.22;93132.16;5050749;28;20229;-77
2022/03/25 10:00:04;;;;;;;17.00;15.20;;;;;;;13.94;23.21;93132.84;5050871;28;20236;-77
2022/03/25 10:02:30;;;;;;;16.47;14.47;;;;;;;13.92;23.35;93124.47;5049882;28;20209;-76
2022/03/25 10:04:56;;;;;;;16.43;14.87;;;;;;;13.81;23.12;93127.50;5050318;28;20238;-78
2022/03/25 10:07:27;;;;;;;16.10;14.47;;;;;;;14.07;23.30;93137.34;5048977;28;20189;-74
2022/03/25 10:10:17;;;;;;;23.73;17.40;;;;;;;14.19;22.81;93121.91;5049867;28;20225;-75
2022/03/25 10:12:50;;;;;;;25.80;16.47;;;;;;;14.11;22.14;93117.34;5048861;28;20190;-75
2022/03/25 10:15:24;;;;;;;22.60;14.27;;;;;;;14.26;22.64;93130.25;5049523;28;20235;-75
2022/03/25 10:17:56;;;;;;;16.70;15.07;;;;;;;14.14;22.57;93136.97;5050140;28;20274;-75
2022/03/25 10:20:26;;;;;;;18.63;15.53;;;;;;;14.15;22.82;93128.81;5040993;28;20232;-75
2022/03/25 10:23:09;;;;;;;16.87;15.07;;;;;;;14.42;22.83;93133.41;5049452;28;20186;-75
2022/03/25 10:25:56;;;;;;;17.17;15.10;;;;;;;14.62;22.92;93121.75;5050052;28;20221;-75
2022/03/25 10:28:27;;;;;;;17.80;13.70;;;;;;;14.47;21.86;93113.06;5050645;28;20201;-75
2022/03/25 10:31:05;;;;;;;15.87;14.20;;;;;;;14.45;21.83;93122.31;5046510;28;20175;-75
2022/03/25 10:33:36;;;;;;;18.70;13.80;;;;;;;14.45;21.40;93117.84;5045756;28;20226;-75
2022/03/25 10:36:10;;;;;;;14.73;13.23;;;;;;;14.51;21.81;93107.25;5049116;28;20202;-75
2022/03/25 10:39:06;;;;;;;15.37;13.90;;;;;;;14.52;21.73;93123.47;5040542;28;20259;-74
2022/03/25 10:41:42;;;;;;;15.00;13.60;;;;;;;14.29;20.88;93108.66;5041909;28;20371;-76
2022/03/25 10:44:10;;;;;;;15.20;13.37;;;;;;;14.34;21.94;93103.31;5049919;28;20238;-75
2022/03/25 10:46:54;;;;;;;15.27;13.77;;;;;;;14.58;21.85;93110.25;5048645;28;20201;-76
2022/03/25 10:49:20;;;;;;;14.57;12.17;;;;;;;14.61;21.85;93105.22;5048711;28;20229;-75
2022/03/25 10:51:53;;;;;;;17.20;13.57;;;;;;;14.48;22.01;93114.63;5050483;28;21313;-76
2022/03/25 10:54:23;;;;;;;16.87;13.57;;;;;;;14.57;21.79;93109.47;5050103;28;20233;-75
2022/03/25 10:56:51;;;;;;;15.50;13.03;;;;;;;14.71;20.87;93112.13;5049145;28;20205;-75
2022/03/25 10:59:35;;;;;;;14.40;13.00;;;;;;;14.45;21.67;93112.59;5048656;28;20418;-75
2022/03/25 11:02:06;;;;;;;15.10;13.60;;;;;;;14.39;20.86;93099.81;5049730;28;20224;-73
2022/03/25 11:04:33;;;;;;;14.33;12.87;;;;;;;14.57;21.89;93103.47;5049518;28;20246;-75
2022/03/25 11:07:01;;;;;;;17.43;14.30;;;;;;;14.72;21.86;93100.53;5043399;28;20787;-75
2022/03/25 11:09:27;;;;;;;14.57;13.13;;;;;;;14.76;20.97;93096.25;5049767;28;20235;-75
2022/03/25 11:11:53;;;;;;;14.67;13.07;;;;;;;14.64;20.89;93090.69;5048532;28;20217;-74
2022/03/25 11:14:22;;;;;;;17.07;15.27;;;;;;;14.68;20.88;93089.06;5049397;28;20233;-75
2022/03/25 11:16:54;;;;;;;16.30;14.60;;;;;;;14.49;21.06;93074.16;5048140;28;21293;-76
2022/03/25 11:19:21;;;;;;;15.60;13.97;;;;;;;14.62;20.77;93093.63;5049317;28;20234;-75
2022/03/25 11:21:48;;;;;;;16.17;14.63;;;;;;;14.64;21.27;93088.88;5049183;28;20186;-75